sensor_id;sensor_type;location;lat;lon;timestamp;temperature;humidity
37974;DHT22;23796;51.458;7.000;2022-12-18T00:01:43;-4.20;99.90
37974;DHT22;23796;51.458;7.000;2022-12-18T00:04:20;-4.10;99.90
37974;DHT22;23796;51.458;7.000;2022-12-18T00:06:46;-4.20;99.90
37974;DHT22;23796;51.458;7.000;2022-12-18T00:09:14;-4.30;99.90
37974;DHT22;23796;51.458;7.000;2022-12-18T00:11:42;-4.40;99.90
37974;DHT22;23796;51.458;7.000;2022-12-18T00:14:09;-4.50;99.90
37974;DHT22;23796;51.458;7.000;2022-12-18T00:16:36;-4.60;99.90
37974;DHT22;23796;51.458;7.000;2022-12-18T00:19:03;-4.70;99.90
37974;DHT22;23796;51.458;7.000;2022-12-18T00:21:32;-4.70;99.90
37974;DHT22;23796;51.458;7.000;2022-12-18T00:23:59;-4.70;99.90
37974;DHT22;23796;51.458;7.000;2022-12-18T00:26:28;-4.60;99.90
37974;DHT22;23796;51.458;7.000;2022-12-18T00:28:54;-4.40;99.90
37974;DHT22;23796;51.458;7.000;2022-12-18T00:31:25;-4.40;99.90
37974;DHT22;23796;51.458;7.000;2022-12-18T00:33:54;-4.50;99.90
37974;DHT22;23796;51.458;7.000;2022-12-18T00:36:23;-4.60;99.90
37974;DHT22;23796;51.458;7.000;2022-12-18T00:38:52;-4.60;99.90
37974;DHT22;23796;51.458;7.000;2022-12-18T00:41:21;-4.60;99.90
37974;DHT22;23796;51.458;7.000;2022-12-18T00:44:10;-4.60;99.90
37974;DHT22;23796;51.458;7.000;2022-12-18T00:46:40;-4.50;99.90
37974;DHT22;23796;51.458;7.000;2022-12-18T00:49:05;-4.60;99.90
37974;DHT22;23796;51.458;7.000;2022-12-18T00:51:32;-4.60;99.90
37974;DHT22;23796;51.458;7.000;2022-12-18T00:54:00;-4.60;99.90
37974;DHT22;23796;51.458;7.000;2022-12-18T00:56:25;-4.50;99.90
37974;DHT22;23796;51.458;7.000;2022-12-18T00:58:51;-4.40;99.90
37974;DHT22;23796;51.458;7.000;2022-12-18T01:01:19;-4.50;99.90
37974;DHT22;23796;51.458;7.000;2022-12-18T01:03:45;-4.50;99.90
37974;DHT22;23796;51.458;7.000;2022-12-18T01:06:13;-4.50;99.90
37974;DHT22;23796;51.458;7.000;2022-12-18T01:08:41;-4.60;99.90
37974;DHT22;23796;51.458;7.000;2022-12-18T01:11:13;-4.60;99.90
37974;DHT22;23796;51.458;7.000;2022-12-18T01:13:39;-4.60;99.90
37974;DHT22;23796;51.458;7.000;2022-12-18T01:16:07;-4.60;99.90
37974;DHT22;23796;51.458;7.000;2022-12-18T01:18:34;-4.60;99.90
37974;DHT22;23796;51.458;7.000;2022-12-18T01:21:00;-4.60;99.90
37974;DHT22;23796;51.458;7.000;2022-12-18T01:23:28;-4.60;99.90
37974;DHT22;23796;51.458;7.000;2022-12-18T01:25:56;-4.50;99.90
37974;DHT22;23796;51.458;7.000;2022-12-18T01:28:24;-4.40;99.90
37974;DHT22;23796;51.458;7.000;2022-12-18T01:30:51;-4.50;99.90
37974;DHT22;23796;51.458;7.000;2022-12-18T01:33:17;-4.60;99.90
37974;DHT22;23796;51.458;7.000;2022-12-18T01:35:43;-4.60;99.90
37974;DHT22;23796;51.458;7.000;2022-12-18T01:38:09;-4.70;99.90
37974;DHT22;23796;51.458;7.000;2022-12-18T01:40:35;-4.70;99.90
37974;DHT22;23796;51.458;7.000;2022-12-18T01:43:00;-4.80;99.90
37974;DHT22;23796;51.458;7.000;2022-12-18T01:45:29;-4.80;99.90
37974;DHT22;23796;51.458;7.000;2022-12-18T01:48:02;-4.90;99.90
37974;DHT22;23796;51.458;7.000;2022-12-18T01:50:36;-4.90;99.90
37974;DHT22;23796;51.458;7.000;2022-12-18T01:53:20;-4.80;99.90
37974;DHT22;23796;51.458;7.000;2022-12-18T01:55:52;-4.80;99.90
37974;DHT22;23796;51.458;7.000;2022-12-18T01:58:20;-4.80;99.90
37974;DHT22;23796;51.458;7.000;2022-12-18T02:00:46;-4.80;99.90
37974;DHT22;23796;51.458;7.000;2022-12-18T02:03:12;-4.80;99.90
37974;DHT22;23796;51.458;7.000;2022-12-18T02:16:42;-5.10;99.90
37974;DHT22;23796;51.458;7.000;2022-12-18T02:22:43;-5.30;99.90
37974;DHT22;23796;51.458;7.000;2022-12-18T02:25:17;-5.40;99.90
37974;DHT22;23796;51.458;7.000;2022-12-18T02:27:49;-5.40;99.90
37974;DHT22;23796;51.458;7.000;2022-12-18T02:30:18;-5.50;99.90
37974;DHT22;23796;51.458;7.000;2022-12-18T02:32:50;-5.40;99.90
37974;DHT22;23796;51.458;7.000;2022-12-18T02:35:22;-5.40;99.90
37974;DHT22;23796;51.458;7.000;2022-12-18T02:37:57;-5.30;99.90
37974;DHT22;23796;51.458;7.000;2022-12-18T02:40:25;-5.20;99.90
37974;DHT22;23796;51.458;7.000;2022-12-18T02:42:52;-5.00;99.90
37974;DHT22;23796;51.458;7.000;2022-12-18T02:45:17;-5.00;99.90
37974;DHT22;23796;51.458;7.000;2022-12-18T02:47:46;-5.20;99.90
37974;DHT22;23796;51.458;7.000;2022-12-18T02:50:45;-5.30;99.90
37974;DHT22;23796;51.458;7.000;2022-12-18T02:53:24;-5.30;99.90
37974;DHT22;23796;51.458;7.000;2022-12-18T02:58:43;-5.40;99.90
37974;DHT22;23796;51.458;7.000;2022-12-18T03:03:53;-5.40;99.90
37974;DHT22;23796;51.458;7.000;2022-12-18T03:06:26;-5.30;99.90
37974;DHT22;23796;51.458;7.000;2022-12-18T03:08:58;-5.30;99.90
37974;DHT22;23796;51.458;7.000;2022-12-18T03:11:25;-5.30;99.90
37974;DHT22;23796;51.458;7.000;2022-12-18T03:14:13;-5.40;99.90
37974;DHT22;23796;51.458;7.000;2022-12-18T03:16:42;-5.40;99.90
37974;DHT22;23796;51.458;7.000;2022-12-18T03:19:15;-5.50;99.90
37974;DHT22;23796;51.458;7.000;2022-12-18T03:21:47;-5.60;99.90
37974;DHT22;23796;51.458;7.000;2022-12-18T03:24:14;-5.60;99.90
37974;DHT22;23796;51.458;7.000;2022-12-18T03:26:43;-5.70;99.90
37974;DHT22;23796;51.458;7.000;2022-12-18T03:29:14;-5.70;99.90
37974;DHT22;23796;51.458;7.000;2022-12-18T03:31:47;-5.80;99.90
37974;DHT22;23796;51.458;7.000;2022-12-18T03:34:20;-5.70;99.90
37974;DHT22;23796;51.458;7.000;2022-12-18T03:36:47;-5.80;99.90
37974;DHT22;23796;51.458;7.000;2022-12-18T03:39:12;-5.70;99.90
37974;DHT22;23796;51.458;7.000;2022-12-18T03:41:47;-5.70;99.90
37974;DHT22;23796;51.458;7.000;2022-12-18T03:44:32;-5.80;99.90
37974;DHT22;23796;51.458;7.000;2022-12-18T03:52:45;-5.70;99.90
37974;DHT22;23796;51.458;7.000;2022-12-18T03:55:17;-5.70;99.90
37974;DHT22;23796;51.458;7.000;2022-12-18T03:57:44;-5.70;99.90
37974;DHT22;23796;51.458;7.000;2022-12-18T04:00:16;-5.60;99.90
37974;DHT22;23796;51.458;7.000;2022-12-18T04:02:51;-5.60;99.90
37974;DHT22;23796;51.458;7.000;2022-12-18T04:05:19;-5.70;99.90
37974;DHT22;23796;51.458;7.000;2022-12-18T04:07:47;-5.70;99.90
37974;DHT22;23796;51.458;7.000;2022-12-18T04:10:15;-5.70;99.90
37974;DHT22;23796;51.458;7.000;2022-12-18T04:12:41;-5.70;99.90
37974;DHT22;23796;51.458;7.000;2022-12-18T04:15:08;-5.60;99.90
37974;DHT22;23796;51.458;7.000;2022-12-18T04:17:36;-5.60;99.90
37974;DHT22;23796;51.458;7.000;2022-12-18T04:20:10;-5.60;99.90
37974;DHT22;23796;51.458;7.000;2022-12-18T04:22:38;-5.50;99.90
37974;DHT22;23796;51.458;7.000;2022-12-18T04:25:06;-5.50;99.90
37974;DHT22;23796;51.458;7.000;2022-12-18T04:27:32;-5.60;99.90
37974;DHT22;23796;51.458;7.000;2022-12-18T04:29:57;-5.60;99.90
37974;DHT22;23796;51.458;7.000;2022-12-18T04:32:25;-5.60;99.90
37974;DHT22;23796;51.458;7.000;2022-12-18T04:34:51;-5.60;99.90
37974;DHT22;23796;51.458;7.000;2022-12-18T04:37:19;-5.60;99.90
37974;DHT22;23796;51.458;7.000;2022-12-18T04:39:44;-5.50;99.90
37974;DHT22;23796;51.458;7.000;2022-12-18T04:42:12;-5.60;99.90
37974;DHT22;23796;51.458;7.000;2022-12-18T04:44:40;-5.60;99.90
37974;DHT22;23796;51.458;7.000;2022-12-18T04:47:06;-5.50;99.90
37974;DHT22;23796;51.458;7.000;2022-12-18T04:49:32;-5.50;99.90
37974;DHT22;23796;51.458;7.000;2022-12-18T04:51:58;-5.50;99.90
37974;DHT22;23796;51.458;7.000;2022-12-18T04:54:24;-5.50;99.90
37974;DHT22;23796;51.458;7.000;2022-12-18T04:56:49;-5.50;99.90
37974;DHT22;23796;51.458;7.000;2022-12-18T04:59:15;-5.60;99.90
37974;DHT22;23796;51.458;7.000;2022-12-18T05:01:40;-5.70;99.90
37974;DHT22;23796;51.458;7.000;2022-12-18T05:04:06;-5.80;99.90
37974;DHT22;23796;51.458;7.000;2022-12-18T05:06:34;-5.90;99.90
37974;DHT22;23796;51.458;7.000;2022-12-18T05:08:59;-6.00;99.90
37974;DHT22;23796;51.458;7.000;2022-12-18T05:11:29;-5.90;99.90
37974;DHT22;23796;51.458;7.000;2022-12-18T05:13:58;-5.80;99.90
37974;DHT22;23796;51.458;7.000;2022-12-18T05:16:23;-5.80;99.90
37974;DHT22;23796;51.458;7.000;2022-12-18T05:18:49;-5.80;99.90
37974;DHT22;23796;51.458;7.000;2022-12-18T05:21:15;-5.70;99.90
37974;DHT22;23796;51.458;7.000;2022-12-18T05:23:40;-5.70;99.90
37974;DHT22;23796;51.458;7.000;2022-12-18T05:26:06;-5.60;99.90
37974;DHT22;23796;51.458;7.000;2022-12-18T05:28:34;-5.50;99.90
37974;DHT22;23796;51.458;7.000;2022-12-18T05:31:03;-5.20;99.90
37974;DHT22;23796;51.458;7.000;2022-12-18T05:33:31;-5.00;99.90
37974;DHT22;23796;51.458;7.000;2022-12-18T05:36:02;-4.80;99.90
37974;DHT22;23796;51.458;7.000;2022-12-18T05:38:29;-4.20;99.90
37974;DHT22;23796;51.458;7.000;2022-12-18T05:40:56;-3.80;99.90
37974;DHT22;23796;51.458;7.000;2022-12-18T05:43:25;-3.60;99.90
37974;DHT22;23796;51.458;7.000;2022-12-18T05:45:51;-3.60;99.90
37974;DHT22;23796;51.458;7.000;2022-12-18T05:48:17;-3.80;99.90
37974;DHT22;23796;51.458;7.000;2022-12-18T05:50:45;-4.00;99.90
37974;DHT22;23796;51.458;7.000;2022-12-18T05:53:11;-4.30;99.90
37974;DHT22;23796;51.458;7.000;2022-12-18T05:55:39;-4.50;99.90
37974;DHT22;23796;51.458;7.000;2022-12-18T05:58:06;-4.60;99.90
37974;DHT22;23796;51.458;7.000;2022-12-18T06:00:36;-4.60;99.90
37974;DHT22;23796;51.458;7.000;2022-12-18T06:03:05;-4.80;99.90
37974;DHT22;23796;51.458;7.000;2022-12-18T06:05:38;-4.80;99.90
37974;DHT22;23796;51.458;7.000;2022-12-18T06:08:04;-4.90;99.90
37974;DHT22;23796;51.458;7.000;2022-12-18T06:10:33;-4.90;99.90
37974;DHT22;23796;51.458;7.000;2022-12-18T06:12:58;-4.90;99.90
37974;DHT22;23796;51.458;7.000;2022-12-18T06:15:26;-4.90;99.90
37974;DHT22;23796;51.458;7.000;2022-12-18T06:17:54;-4.80;99.90
37974;DHT22;23796;51.458;7.000;2022-12-18T06:20:20;-4.80;99.90
37974;DHT22;23796;51.458;7.000;2022-12-18T06:22:46;-4.90;99.90
37974;DHT22;23796;51.458;7.000;2022-12-18T06:25:14;-4.90;99.90
37974;DHT22;23796;51.458;7.000;2022-12-18T06:27:42;-4.80;99.90
37974;DHT22;23796;51.458;7.000;2022-12-18T06:30:11;-4.60;99.90
37974;DHT22;23796;51.458;7.000;2022-12-18T06:32:36;-4.70;99.90
37974;DHT22;23796;51.458;7.000;2022-12-18T06:35:02;-4.80;99.90
37974;DHT22;23796;51.458;7.000;2022-12-18T06:37:30;-4.90;99.90
37974;DHT22;23796;51.458;7.000;2022-12-18T06:39:56;-5.00;99.90
37974;DHT22;23796;51.458;7.000;2022-12-18T06:42:23;-5.00;99.90
37974;DHT22;23796;51.458;7.000;2022-12-18T06:44:51;-5.00;99.90
37974;DHT22;23796;51.458;7.000;2022-12-18T06:47:17;-5.00;99.90
37974;DHT22;23796;51.458;7.000;2022-12-18T06:49:43;-4.90;99.90
37974;DHT22;23796;51.458;7.000;2022-12-18T06:52:11;-4.90;99.90
37974;DHT22;23796;51.458;7.000;2022-12-18T06:54:39;-5.10;99.90
37974;DHT22;23796;51.458;7.000;2022-12-18T06:57:07;-5.10;99.90
37974;DHT22;23796;51.458;7.000;2022-12-18T06:59:33;-5.10;99.90
37974;DHT22;23796;51.458;7.000;2022-12-18T07:01:58;-5.20;99.90
37974;DHT22;23796;51.458;7.000;2022-12-18T07:04:31;-5.20;99.90
37974;DHT22;23796;51.458;7.000;2022-12-18T07:06:59;-5.20;99.90
37974;DHT22;23796;51.458;7.000;2022-12-18T07:09:24;-5.20;99.90
37974;DHT22;23796;51.458;7.000;2022-12-18T07:11:50;-5.20;99.90
37974;DHT22;23796;51.458;7.000;2022-12-18T07:14:16;-5.20;99.90
37974;DHT22;23796;51.458;7.000;2022-12-18T07:16:43;-5.20;99.90
37974;DHT22;23796;51.458;7.000;2022-12-18T07:19:12;-5.30;99.90
37974;DHT22;23796;51.458;7.000;2022-12-18T07:21:37;-5.30;99.90
37974;DHT22;23796;51.458;7.000;2022-12-18T07:24:06;-5.40;99.90
37974;DHT22;23796;51.458;7.000;2022-12-18T07:26:31;-5.40;99.90
37974;DHT22;23796;51.458;7.000;2022-12-18T07:28:57;-5.40;99.90
37974;DHT22;23796;51.458;7.000;2022-12-18T07:31:24;-5.40;99.90
37974;DHT22;23796;51.458;7.000;2022-12-18T07:33:50;-5.40;99.90
37974;DHT22;23796;51.458;7.000;2022-12-18T07:36:16;-5.40;99.90
37974;DHT22;23796;51.458;7.000;2022-12-18T07:38:42;-5.40;99.90
37974;DHT22;23796;51.458;7.000;2022-12-18T07:41:12;-5.40;99.90
37974;DHT22;23796;51.458;7.000;2022-12-18T07:43:38;-5.50;99.90
37974;DHT22;23796;51.458;7.000;2022-12-18T07:46:05;-5.60;99.90
37974;DHT22;23796;51.458;7.000;2022-12-18T07:48:30;-5.60;99.90
37974;DHT22;23796;51.458;7.000;2022-12-18T07:51:04;-5.60;99.90
37974;DHT22;23796;51.458;7.000;2022-12-18T07:53:31;-5.60;99.90
37974;DHT22;23796;51.458;7.000;2022-12-18T07:56:02;-5.60;99.90
37974;DHT22;23796;51.458;7.000;2022-12-18T07:58:29;-5.60;99.90
37974;DHT22;23796;51.458;7.000;2022-12-18T08:01:01;-5.50;99.90
37974;DHT22;23796;51.458;7.000;2022-12-18T08:03:27;-5.30;99.90
37974;DHT22;23796;51.458;7.000;2022-12-18T08:05:59;-5.30;99.90
37974;DHT22;23796;51.458;7.000;2022-12-18T08:08:27;-5.20;99.90
37974;DHT22;23796;51.458;7.000;2022-12-18T08:10:52;-5.20;99.90
37974;DHT22;23796;51.458;7.000;2022-12-18T08:13:20;-5.10;99.90
37974;DHT22;23796;51.458;7.000;2022-12-18T08:15:46;-5.00;99.90
37974;DHT22;23796;51.458;7.000;2022-12-18T08:18:12;-5.00;99.90
37974;DHT22;23796;51.458;7.000;2022-12-18T08:20:37;-4.90;99.90
37974;DHT22;23796;51.458;7.000;2022-12-18T08:23:03;-4.90;99.90
37974;DHT22;23796;51.458;7.000;2022-12-18T08:25:28;-4.80;99.90
37974;DHT22;23796;51.458;7.000;2022-12-18T08:27:59;-4.70;99.90
37974;DHT22;23796;51.458;7.000;2022-12-18T08:30:29;-4.40;99.90
37974;DHT22;23796;51.458;7.000;2022-12-18T08:32:55;-4.30;99.90
37974;DHT22;23796;51.458;7.000;2022-12-18T08:35:21;-4.30;99.90
37974;DHT22;23796;51.458;7.000;2022-12-18T08:37:49;-4.20;99.90
37974;DHT22;23796;51.458;7.000;2022-12-18T08:40:15;-4.30;99.90
37974;DHT22;23796;51.458;7.000;2022-12-18T08:42:40;-4.30;99.90
37974;DHT22;23796;51.458;7.000;2022-12-18T08:45:35;-4.30;99.90
37974;DHT22;23796;51.458;7.000;2022-12-18T08:48:01;-4.40;99.90
37974;DHT22;23796;51.458;7.000;2022-12-18T08:50:28;-4.40;99.90
37974;DHT22;23796;51.458;7.000;2022-12-18T08:52:54;-4.50;99.90
37974;DHT22;23796;51.458;7.000;2022-12-18T08:55:20;-4.40;99.90
37974;DHT22;23796;51.458;7.000;2022-12-18T08:57:50;-4.40;99.90
37974;DHT22;23796;51.458;7.000;2022-12-18T09:00:18;-4.40;99.90
37974;DHT22;23796;51.458;7.000;2022-12-18T09:02:44;-4.30;99.90
37974;DHT22;23796;51.458;7.000;2022-12-18T09:05:09;-4.20;99.90
37974;DHT22;23796;51.458;7.000;2022-12-18T09:07:37;-4.00;99.90
37974;DHT22;23796;51.458;7.000;2022-12-18T09:10:05;-3.90;99.90
37974;DHT22;23796;51.458;7.000;2022-12-18T09:12:34;-3.70;99.90
37974;DHT22;23796;51.458;7.000;2022-12-18T09:14:59;-3.60;99.90
37974;DHT22;23796;51.458;7.000;2022-12-18T09:17:27;-3.30;99.90
37974;DHT22;23796;51.458;7.000;2022-12-18T09:19:55;-3.10;99.90
37974;DHT22;23796;51.458;7.000;2022-12-18T09:22:23;-2.80;99.90
37974;DHT22;23796;51.458;7.000;2022-12-18T09:24:48;-2.60;99.90
37974;DHT22;23796;51.458;7.000;2022-12-18T09:27:16;-2.40;99.90
37974;DHT22;23796;51.458;7.000;2022-12-18T09:29:42;-1.90;99.90
37974;DHT22;23796;51.458;7.000;2022-12-18T09:32:10;-1.40;99.90
37974;DHT22;23796;51.458;7.000;2022-12-18T09:34:36;-1.00;99.90
37974;DHT22;23796;51.458;7.000;2022-12-18T09:37:03;-0.70;99.90
37974;DHT22;23796;51.458;7.000;2022-12-18T09:39:29;-0.50;99.90
37974;DHT22;23796;51.458;7.000;2022-12-18T09:41:57;-0.20;99.90
37974;DHT22;23796;51.458;7.000;2022-12-18T09:44:24;0.00;99.90
37974;DHT22;23796;51.458;7.000;2022-12-18T09:49:26;0.30;99.90
37974;DHT22;23796;51.458;7.000;2022-12-18T09:52:11;0.40;99.90
37974;DHT22;23796;51.458;7.000;2022-12-18T09:54:48;0.50;99.90
37974;DHT22;23796;51.458;7.000;2022-12-18T09:57:21;0.70;99.90
37974;DHT22;23796;51.458;7.000;2022-12-18T10:02:38;1.00;99.90
37974;DHT22;23796;51.458;7.000;2022-12-18T10:05:16;1.10;99.90
37974;DHT22;23796;51.458;7.000;2022-12-18T10:18:36;1.70;99.90
37974;DHT22;23796;51.458;7.000;2022-12-18T10:21:26;1.80;99.90
37974;DHT22;23796;51.458;7.000;2022-12-18T10:24:02;1.90;99.90
37974;DHT22;23796;51.458;7.000;2022-12-18T10:26:33;2.00;99.90
37974;DHT22;23796;51.458;7.000;2022-12-18T10:28:59;2.10;99.90
37974;DHT22;23796;51.458;7.000;2022-12-18T10:31:25;2.20;99.90
37974;DHT22;23796;51.458;7.000;2022-12-18T10:33:54;2.30;99.90
37974;DHT22;23796;51.458;7.000;2022-12-18T10:36:22;2.40;99.90
37974;DHT22;23796;51.458;7.000;2022-12-18T10:38:49;2.40;99.90
37974;DHT22;23796;51.458;7.000;2022-12-18T10:43:44;2.60;99.90
37974;DHT22;23796;51.458;7.000;2022-12-18T10:51:06;2.70;99.90
37974;DHT22;23796;51.458;7.000;2022-12-18T10:53:33;2.80;99.90
37974;DHT22;23796;51.458;7.000;2022-12-18T10:56:00;2.80;99.90
37974;DHT22;23796;51.458;7.000;2022-12-18T10:58:36;2.80;99.90
37974;DHT22;23796;51.458;7.000;2022-12-18T11:01:15;2.80;99.90
37974;DHT22;23796;51.458;7.000;2022-12-18T11:06:24;2.90;99.90
37974;DHT22;23796;51.458;7.000;2022-12-18T11:09:05;3.00;99.90
37974;DHT22;23796;51.458;7.000;2022-12-18T11:11:33;3.00;99.90
37974;DHT22;23796;51.458;7.000;2022-12-18T11:16:50;3.20;99.90
37974;DHT22;23796;51.458;7.000;2022-12-18T11:19:36;3.30;99.90
37974;DHT22;23796;51.458;7.000;2022-12-18T11:22:24;3.40;99.90
37974;DHT22;23796;51.458;7.000;2022-12-18T11:27:31;3.60;99.90
37974;DHT22;23796;51.458;7.000;2022-12-18T11:33:15;3.80;99.90
37974;DHT22;23796;51.458;7.000;2022-12-18T11:35:55;3.90;99.90
37974;DHT22;23796;51.458;7.000;2022-12-18T11:38:27;4.10;99.90
37974;DHT22;23796;51.458;7.000;2022-12-18T11:44:03;4.30;99.90
37974;DHT22;23796;51.458;7.000;2022-12-18T11:46:46;4.30;99.90
37974;DHT22;23796;51.458;7.000;2022-12-18T11:49:24;4.40;99.90
37974;DHT22;23796;51.458;7.000;2022-12-18T11:52:06;4.40;99.90
37974;DHT22;23796;51.458;7.000;2022-12-18T11:54:34;4.50;99.90
37974;DHT22;23796;51.458;7.000;2022-12-18T11:57:34;4.50;99.90
37974;DHT22;23796;51.458;7.000;2022-12-18T12:00:03;4.60;99.90
37974;DHT22;23796;51.458;7.000;2022-12-18T12:02:54;4.60;99.90
37974;DHT22;23796;51.458;7.000;2022-12-18T12:21:40;3.20;99.90
37974;DHT22;23796;51.458;7.000;2022-12-18T12:24:12;2.70;99.90
37974;DHT22;23796;51.458;7.000;2022-12-18T12:30:29;2.50;99.90
37974;DHT22;23796;51.458;7.000;2022-12-18T12:35:36;2.60;99.90
37974;DHT22;23796;51.458;7.000;2022-12-18T12:38:16;2.30;99.90
37974;DHT22;23796;51.458;7.000;2022-12-18T12:40:49;2.30;99.90
37974;DHT22;23796;51.458;7.000;2022-12-18T12:43:22;2.40;99.90
37974;DHT22;23796;51.458;7.000;2022-12-18T12:48:32;3.30;99.90
37974;DHT22;23796;51.458;7.000;2022-12-18T12:51:03;3.50;99.90
37974;DHT22;23796;51.458;7.000;2022-12-18T12:53:32;3.80;99.90
37974;DHT22;23796;51.458;7.000;2022-12-18T12:55:59;3.90;99.90
37974;DHT22;23796;51.458;7.000;2022-12-18T13:01:08;3.80;99.90
37974;DHT22;23796;51.458;7.000;2022-12-18T13:03:52;3.60;99.90
37974;DHT22;23796;51.458;7.000;2022-12-18T13:09:08;3.40;99.90
37974;DHT22;23796;51.458;7.000;2022-12-18T13:11:43;3.40;99.90
37974;DHT22;23796;51.458;7.000;2022-12-18T13:14:35;3.50;99.90
37974;DHT22;23796;51.458;7.000;2022-12-18T13:17:24;3.40;99.90
37974;DHT22;23796;51.458;7.000;2022-12-18T13:20:05;3.50;99.90
37974;DHT22;23796;51.458;7.000;2022-12-18T13:25:00;3.70;99.90
37974;DHT22;23796;51.458;7.000;2022-12-18T13:30:47;4.00;99.90
37974;DHT22;23796;51.458;7.000;2022-12-18T13:40:55;4.20;99.90
37974;DHT22;23796;51.458;7.000;2022-12-18T13:51:24;4.20;99.90
37974;DHT22;23796;51.458;7.000;2022-12-18T13:53:54;4.20;99.90
37974;DHT22;23796;51.458;7.000;2022-12-18T13:56:27;4.20;99.90
37974;DHT22;23796;51.458;7.000;2022-12-18T14:02:00;4.10;99.90
37974;DHT22;23796;51.458;7.000;2022-12-18T14:04:32;4.10;99.90
37974;DHT22;23796;51.458;7.000;2022-12-18T14:07:07;4.10;99.90
37974;DHT22;23796;51.458;7.000;2022-12-18T14:09:40;4.10;99.90
37974;DHT22;23796;51.458;7.000;2022-12-18T14:12:16;4.10;99.90
37974;DHT22;23796;51.458;7.000;2022-12-18T14:15:03;4.10;99.90
37974;DHT22;23796;51.458;7.000;2022-12-18T14:17:33;4.10;99.90
37974;DHT22;23796;51.458;7.000;2022-12-18T14:20:00;4.00;99.90
37974;DHT22;23796;51.458;7.000;2022-12-18T14:22:26;4.00;99.90
37974;DHT22;23796;51.458;7.000;2022-12-18T14:27:42;3.90;99.90
37974;DHT22;23796;51.458;7.000;2022-12-18T14:30:32;3.90;99.90
37974;DHT22;23796;51.458;7.000;2022-12-18T14:33:10;3.90;99.90
37974;DHT22;23796;51.458;7.000;2022-12-18T14:35:41;3.90;99.90
37974;DHT22;23796;51.458;7.000;2022-12-18T14:40:42;3.90;99.90
37974;DHT22;23796;51.458;7.000;2022-12-18T14:43:11;3.90;99.90
37974;DHT22;23796;51.458;7.000;2022-12-18T14:45:43;3.90;99.90
37974;DHT22;23796;51.458;7.000;2022-12-18T14:48:15;4.00;99.90
37974;DHT22;23796;51.458;7.000;2022-12-18T14:50:43;4.00;99.90
37974;DHT22;23796;51.458;7.000;2022-12-18T14:53:20;4.00;99.90
37974;DHT22;23796;51.458;7.000;2022-12-18T14:55:48;4.00;99.90
37974;DHT22;23796;51.458;7.000;2022-12-18T14:58:16;4.00;99.90
37974;DHT22;23796;51.458;7.000;2022-12-18T15:00:43;4.00;99.90
37974;DHT22;23796;51.458;7.000;2022-12-18T15:03:08;4.00;99.90
37974;DHT22;23796;51.458;7.000;2022-12-18T15:05:35;3.90;99.90
37974;DHT22;23796;51.458;7.000;2022-12-18T15:08:01;3.90;99.90
37974;DHT22;23796;51.458;7.000;2022-12-18T15:10:30;3.90;99.90
37974;DHT22;23796;51.458;7.000;2022-12-18T15:20:43;3.80;99.90
37974;DHT22;23796;51.458;7.000;2022-12-18T15:25:46;3.70;99.90
37974;DHT22;23796;51.458;7.000;2022-12-18T15:28:37;3.70;99.90
37974;DHT22;23796;51.458;7.000;2022-12-18T15:36:28;3.60;99.90
37974;DHT22;23796;51.458;7.000;2022-12-18T15:38:57;3.70;99.90
37974;DHT22;23796;51.458;7.000;2022-12-18T15:41:23;3.60;99.90
37974;DHT22;23796;51.458;7.000;2022-12-18T15:43:51;3.70;99.90
37974;DHT22;23796;51.458;7.000;2022-12-18T15:46:21;3.70;99.90
37974;DHT22;23796;51.458;7.000;2022-12-18T15:48:49;3.70;99.90
37974;DHT22;23796;51.458;7.000;2022-12-18T15:51:21;3.60;99.90
37974;DHT22;23796;51.458;7.000;2022-12-18T15:53:48;3.60;99.90
37974;DHT22;23796;51.458;7.000;2022-12-18T15:56:16;3.70;99.90
37974;DHT22;23796;51.458;7.000;2022-12-18T15:59:04;3.60;99.90
37974;DHT22;23796;51.458;7.000;2022-12-18T16:01:34;3.60;99.90
37974;DHT22;23796;51.458;7.000;2022-12-18T16:03:59;3.60;99.90
37974;DHT22;23796;51.458;7.000;2022-12-18T16:06:25;3.60;99.90
37974;DHT22;23796;51.458;7.000;2022-12-18T16:08:52;3.50;99.90
37974;DHT22;23796;51.458;7.000;2022-12-18T16:11:21;3.50;99.90
37974;DHT22;23796;51.458;7.000;2022-12-18T16:14:04;3.60;99.90
37974;DHT22;23796;51.458;7.000;2022-12-18T16:16:32;3.50;99.90
37974;DHT22;23796;51.458;7.000;2022-12-18T16:19:00;3.50;99.90
37974;DHT22;23796;51.458;7.000;2022-12-18T16:21:26;3.50;99.90
37974;DHT22;23796;51.458;7.000;2022-12-18T16:23:51;3.50;99.90
37974;DHT22;23796;51.458;7.000;2022-12-18T16:26:17;3.50;99.90
37974;DHT22;23796;51.458;7.000;2022-12-18T16:28:43;3.50;99.90
37974;DHT22;23796;51.458;7.000;2022-12-18T16:31:08;3.60;99.90
37974;DHT22;23796;51.458;7.000;2022-12-18T16:33:34;3.60;99.90
37974;DHT22;23796;51.458;7.000;2022-12-18T16:36:01;3.60;99.90
37974;DHT22;23796;51.458;7.000;2022-12-18T16:38:27;3.60;99.90
37974;DHT22;23796;51.458;7.000;2022-12-18T16:40:53;3.60;99.90
37974;DHT22;23796;51.458;7.000;2022-12-18T16:43:37;3.60;99.90
37974;DHT22;23796;51.458;7.000;2022-12-18T16:46:03;3.60;99.90
37974;DHT22;23796;51.458;7.000;2022-12-18T16:48:33;3.70;99.90
37974;DHT22;23796;51.458;7.000;2022-12-18T16:51:01;3.70;99.90
37974;DHT22;23796;51.458;7.000;2022-12-18T16:53:32;3.60;99.90
37974;DHT22;23796;51.458;7.000;2022-12-18T16:56:00;3.60;99.90
37974;DHT22;23796;51.458;7.000;2022-12-18T16:58:25;3.60;99.90
37974;DHT22;23796;51.458;7.000;2022-12-18T17:00:53;3.50;99.90
37974;DHT22;23796;51.458;7.000;2022-12-18T17:03:21;3.50;99.90
37974;DHT22;23796;51.458;7.000;2022-12-18T17:05:47;3.50;99.90
37974;DHT22;23796;51.458;7.000;2022-12-18T17:08:12;3.40;99.90
37974;DHT22;23796;51.458;7.000;2022-12-18T17:10:38;3.50;99.90
37974;DHT22;23796;51.458;7.000;2022-12-18T17:13:06;3.50;99.90
37974;DHT22;23796;51.458;7.000;2022-12-18T17:15:34;3.50;99.90
37974;DHT22;23796;51.458;7.000;2022-12-18T17:18:00;3.40;99.90
37974;DHT22;23796;51.458;7.000;2022-12-18T17:20:31;3.40;99.90
37974;DHT22;23796;51.458;7.000;2022-12-18T17:22:57;3.30;99.90
37974;DHT22;23796;51.458;7.000;2022-12-18T17:25:25;3.30;99.90
37974;DHT22;23796;51.458;7.000;2022-12-18T17:27:53;3.30;99.90
37974;DHT22;23796;51.458;7.000;2022-12-18T17:30:18;3.30;99.90
37974;DHT22;23796;51.458;7.000;2022-12-18T17:32:44;3.30;99.90
37974;DHT22;23796;51.458;7.000;2022-12-18T17:35:14;3.20;99.90
37974;DHT22;23796;51.458;7.000;2022-12-18T17:37:43;3.20;99.90
37974;DHT22;23796;51.458;7.000;2022-12-18T17:40:09;3.20;99.90
37974;DHT22;23796;51.458;7.000;2022-12-18T17:42:34;3.20;99.90
37974;DHT22;23796;51.458;7.000;2022-12-18T17:45:02;3.20;99.90
37974;DHT22;23796;51.458;7.000;2022-12-18T17:47:28;3.20;99.90
37974;DHT22;23796;51.458;7.000;2022-12-18T17:49:56;3.20;99.90
37974;DHT22;23796;51.458;7.000;2022-12-18T17:52:24;3.20;99.90
37974;DHT22;23796;51.458;7.000;2022-12-18T17:54:52;3.20;99.90
37974;DHT22;23796;51.458;7.000;2022-12-18T17:57:18;3.20;99.90
37974;DHT22;23796;51.458;7.000;2022-12-18T17:59:43;3.10;99.90
37974;DHT22;23796;51.458;7.000;2022-12-18T18:02:10;3.20;99.90
37974;DHT22;23796;51.458;7.000;2022-12-18T18:04:36;3.20;99.90
37974;DHT22;23796;51.458;7.000;2022-12-18T18:07:01;3.20;99.90
37974;DHT22;23796;51.458;7.000;2022-12-18T18:09:29;3.10;99.90
37974;DHT22;23796;51.458;7.000;2022-12-18T18:11:55;3.20;99.90